Time;durP1;ratioP1;P1;durP2;ratioP2;P2;SDS_P1;SDS_P2;PMS_P1;PMS_P2;Temp;Humidity;BMP_temperature;BMP_pressure;BME280_temperature;BME280_humidity;BME280_pressure;Samples;Min_cycle;Max_cycle;Signal;HPM_P1;HPM_P2
2022/07/05 00:01:57;;;;;;;10.40;8.40;;;22.80;82.70;;;;;;4953267;29;21338;-67
2022/07/05 00:04:25;;;;;;;8.70;7.90;;;22.80;82.90;;;;;;4953504;29;20470;-67
2022/07/05 00:09:39;;;;;;;10.63;8.60;;;22.90;83.20;;;;;;4956329;29;20486;-67
2022/07/05 00:12:08;;;;;;;14.57;10.93;;;22.80;83.40;;;;;;4956332;29;20576;-67
2022/07/05 00:14:38;;;;;;;11.60;8.70;;;22.80;83.70;;;;;;4956589;28;21286;-67
2022/07/05 00:17:07;;;;;;;10.50;8.90;;;22.80;83.60;;;;;;4956655;29;20491;-67
2022/07/05 00:19:35;;;;;;;11.43;8.47;;;22.80;83.30;;;;;;4957204;28;20456;-67
2022/07/05 00:22:04;;;;;;;11.43;7.70;;;22.90;82.90;;;;;;4940377;29;20490;-67
2022/07/05 00:24:32;;;;;;;10.40;8.20;;;22.90;82.70;;;;;;4952217;28;20506;-67
2022/07/05 00:27:01;;;;;;;10.33;8.40;;;22.80;82.80;;;;;;4956934;28;20474;-67
2022/07/05 00:29:30;;;;;;;12.73;8.70;;;22.70;82.40;;;;;;4949936;29;20452;-67
2022/07/05 00:32:00;;;;;;;12.50;8.87;;;22.50;82.80;;;;;;4955125;29;20530;-71
2022/07/05 00:34:28;;;;;;;14.70;8.00;;;22.30;83.60;;;;;;4955092;28;20466;-70
2022/07/05 00:36:56;;;;;;;11.47;8.03;;;22.30;84.00;;;;;;4955306;29;20493;-67
2022/07/05 00:39:26;;;;;;;8.77;7.83;;;22.20;83.90;;;;;;4954799;28;20532;-67
2022/07/05 00:41:54;;;;;;;9.60;7.60;;;22.30;83.70;;;;;;4954336;29;20791;-71
2022/07/05 00:44:31;;;;;;;11.63;8.70;;;22.10;84.00;;;;;;4954486;29;20502;-67
2022/07/05 00:47:00;;;;;;;14.77;8.70;;;22.10;84.20;;;;;;4951257;28;20470;-67
2022/07/05 00:49:28;;;;;;;9.90;7.70;;;22.10;83.50;;;;;;4954992;29;20465;-68
2022/07/05 00:51:59;;;;;;;15.50;8.77;;;21.90;83.80;;;;;;4953663;28;20976;-68
2022/07/05 00:54:46;;;;;;;12.80;10.13;;;22.00;84.00;;;;;;4949452;29;20529;-69
2022/07/05 00:57:15;;;;;;;11.10;9.37;;;22.10;83.80;;;;;;4956737;28;20482;-67
2022/07/05 00:59:44;;;;;;;13.17;10.87;;;22.20;84.00;;;;;;4956656;29;20447;-67
2022/07/05 01:02:13;;;;;;;15.47;12.33;;;22.20;84.40;;;;;;4955562;28;20893;-67
2022/07/05 01:04:49;;;;;;;15.70;13.80;;;22.00;84.60;;;;;;4948580;29;20454;-70
2022/07/05 01:07:20;;;;;;;15.00;12.10;;;21.90;85.20;;;;;;4955764;29;20909;-67
2022/07/05 01:09:48;;;;;;;23.20;13.40;;;21.70;85.40;;;;;;4955826;29;20445;-68
2022/07/05 01:12:17;;;;;;;18.03;13.40;;;21.70;85.50;;;;;;4956475;29;20477;-70
2022/07/05 01:14:46;;;;;;;19.27;14.17;;;21.40;86.10;;;;;;4947868;29;20455;-67
2022/07/05 01:17:17;;;;;;;223.33;209.20;;;21.20;87.80;;;;;;4946354;29;20497;-67
2022/07/05 01:19:45;;;;;;;126.20;106.57;;;20.90;89.10;;;;;;4955485;29;20466;-67
2022/07/05 01:22:18;;;;;;;106.70;79.93;;;20.80;89.90;;;;;;4955192;29;20468;-67
2022/07/05 01:24:49;;;;;;;118.00;82.70;;;20.80;89.60;;;;;;4954650;29;20460;-67
2022/07/05 01:27:18;;;;;;;114.47;77.87;;;20.90;89.50;;;;;;4955632;28;20524;-67
2022/07/05 01:29:46;;;;;;;110.77;75.13;;;21.00;89.30;;;;;;4953775;29;20512;-67
2022/07/05 01:32:14;;;;;;;114.83;77.87;;;21.20;88.50;;;;;;4956174;29;20469;-67
2022/07/05 01:34:44;;;;;;;110.60;76.87;;;21.30;88.10;;;;;;4952583;28;20645;-67
2022/07/05 01:37:13;;;;;;;112.70;88.87;;;21.50;87.40;;;;;;4949815;29;20470;-67
2022/07/05 01:39:41;;;;;;;113.37;99.70;;;21.60;87.00;;;;;;4954617;29;20457;-67
2022/07/05 01:42:11;;;;;;;162.30;148.70;;;21.70;86.30;;;;;;4952201;29;20466;-68
2022/07/05 01:44:39;;;;;;;278.33;260.70;;;21.80;85.60;;;;;;4955041;29;20490;-67
2022/07/05 01:47:09;;;;;;;110.03;88.50;;;21.80;85.40;;;;;;4955614;29;20518;-69
2022/07/05 01:49:42;;;;;;;106.10;63.23;;;21.60;86.30;;;;;;4955602;29;20476;-69
2022/07/05 01:52:13;;;;;;;97.37;62.70;;;21.30;86.80;;;;;;4955293;28;20478;-67
2022/07/05 01:54:43;;;;;;;97.17;62.23;;;21.20;87.10;;;;;;4954234;29;20459;-67
2022/07/05 01:57:13;;;;;;;117.60;75.10;;;21.00;87.60;;;;;;4953727;29;20461;-67
2022/07/05 01:59:42;;;;;;;177.07;162.73;;;21.20;86.60;;;;;;4953190;29;20459;-67
2022/07/05 02:02:11;;;;;;;115.33;101.93;;;21.40;86.00;;;;;;4954069;29;20524;-67
2022/07/05 02:04:39;;;;;;;250.00;238.27;;;21.50;85.60;;;;;;4953767;29;20821;-67
2022/07/05 02:07:11;;;;;;;19.07;16.97;;;21.50;85.00;;;;;;4953869;29;20472;-67
2022/07/05 02:09:41;;;;;;;19.87;15.80;;;21.50;84.50;;;;;;4953291;29;20963;-67
2022/07/05 02:12:13;;;;;;;18.13;14.53;;;21.60;84.30;;;;;;4953209;29;20485;-70
2022/07/05 02:14:41;;;;;;;16.83;15.23;;;21.60;84.10;;;;;;4949173;29;20526;-67
2022/07/05 02:17:15;;;;;;;16.53;13.67;;;21.60;83.70;;;;;;4953873;29;20494;-67
2022/07/05 02:19:45;;;;;;;13.27;11.40;;;21.70;83.30;;;;;;4953458;29;20459;-67
2022/07/05 02:22:16;;;;;;;12.57;11.30;;;21.70;82.90;;;;;;4953831;29;20886;-67
2022/07/05 02:24:44;;;;;;;11.90;10.80;;;21.80;82.70;;;;;;4953039;29;20852;-71
2022/07/05 02:27:20;;;;;;;11.97;10.00;;;21.80;82.20;;;;;;4934755;29;20460;-68
2022/07/05 02:29:50;;;;;;;10.40;9.27;;;21.80;82.00;;;;;;4945275;28;20466;-68
2022/07/05 02:32:23;;;;;;;10.77;9.53;;;21.70;81.70;;;;;;4949491;29;20477;-68
2022/07/05 02:34:52;;;;;;;10.60;9.40;;;21.70;82.10;;;;;;4929319;29;20462;-67
2022/07/05 02:37:20;;;;;;;14.53;9.37;;;21.70;81.90;;;;;;4949891;29;20457;-68
2022/07/05 02:39:48;;;;;;;13.77;10.47;;;21.70;81.70;;;;;;4953945;29;20461;-68
2022/07/05 02:42:17;;;;;;;17.20;9.53;;;21.70;81.40;;;;;;4952579;29;20469;-68
2022/07/05 02:44:47;;;;;;;10.80;9.80;;;21.60;81.60;;;;;;4953511;29;20446;-67
2022/07/05 02:47:16;;;;;;;11.80;9.70;;;21.60;81.80;;;;;;4952249;29;20474;-70
2022/07/05 02:49:45;;;;;;;12.03;10.10;;;21.50;82.10;;;;;;4952557;29;20456;-68
2022/07/05 02:52:14;;;;;;;11.77;10.57;;;21.50;81.70;;;;;;4946503;29;20487;-67
2022/07/05 02:54:42;;;;;;;10.90;9.80;;;21.40;81.90;;;;;;4950456;29;20509;-67
2022/07/05 02:57:12;;;;;;;17.53;9.67;;;21.20;82.10;;;;;;4966129;28;20789;-67
2022/07/05 02:59:40;;;;;;;13.17;10.53;;;21.10;82.40;;;;;;4953254;29;20464;-67
2022/07/05 03:02:10;;;;;;;10.40;9.17;;;20.90;82.60;;;;;;4953074;29;20556;-68
2022/07/05 03:04:41;;;;;;;9.80;8.90;;;20.90;82.40;;;;;;4953114;29;20557;-68
2022/07/05 03:07:10;;;;;;;13.60;9.60;;;20.70;82.40;;;;;;4954089;29;20422;-67
2022/07/05 03:09:38;;;;;;;10.23;8.40;;;20.60;82.60;;;;;;4952743;29;20452;-67
2022/07/05 03:12:08;;;;;;;10.97;8.73;;;20.50;82.50;;;;;;4949517;29;20943;-67
2022/07/05 03:14:37;;;;;;;12.93;8.80;;;20.40;82.50;;;;;;4950241;29;20473;-67
2022/07/05 03:17:06;;;;;;;8.23;7.27;;;20.50;82.10;;;;;;4952983;29;20488;-67
2022/07/05 03:19:35;;;;;;;8.37;7.00;;;20.40;81.50;;;;;;4952962;29;21005;-67
2022/07/05 03:22:05;;;;;;;19.23;7.93;;;20.10;81.50;;;;;;4951988;29;20809;-67
2022/07/05 03:24:35;;;;;;;14.73;8.63;;;20.00;83.10;;;;;;4952710;29;20550;-67
2022/07/05 03:27:05;;;;;;;10.50;9.33;;;20.00;83.20;;;;;;4956345;29;20903;-67
2022/07/05 03:29:34;;;;;;;13.93;10.30;;;19.80;84.30;;;;;;4955833;28;20958;-69
2022/07/05 03:32:02;;;;;;;13.53;12.07;;;20.00;84.70;;;;;;4951284;29;20455;-67
2022/07/05 03:34:30;;;;;;;15.00;13.40;;;20.00;84.70;;;;;;4955575;29;20476;-67
2022/07/05 03:37:04;;;;;;;273.70;259.23;;;19.80;85.70;;;;;;4952845;29;20979;-68
2022/07/05 03:39:32;;;;;;;181.27;167.27;;;19.60;86.80;;;;;;4954426;29;20456;-67
2022/07/05 03:42:01;;;;;;;102.70;51.03;;;19.60;86.60;;;;;;4954965;29;20459;-68
2022/07/05 03:44:32;;;;;;;103.23;61.13;;;19.50;86.80;;;;;;4956500;28;20487;-68
2022/07/05 03:47:03;;;;;;;107.40;54.23;;;19.40;87.30;;;;;;4951869;28;20466;-68
2022/07/05 03:49:32;;;;;;;107.60;52.53;;;19.40;87.10;;;;;;4949599;29;20562;-68
2022/07/05 03:52:00;;;;;;;104.60;72.97;;;19.50;87.00;;;;;;4955138;29;20493;-67
2022/07/05 03:54:30;;;;;;;105.93;68.93;;;19.40;87.60;;;;;;4957439;29;20480;-69
2022/07/05 03:56:58;;;;;;;100.27;67.27;;;19.60;86.70;;;;;;4956418;29;20543;-67
2022/07/05 03:59:27;;;;;;;96.83;45.43;;;19.60;86.90;;;;;;4957295;29;20439;-67
2022/07/05 04:01:55;;;;;;;135.23;120.47;;;19.40;87.50;;;;;;4955166;29;20547;-67
2022/07/05 04:04:26;;;;;;;138.47;114.03;;;19.50;87.70;;;;;;4956912;29;20459;-67
2022/07/05 04:06:54;;;;;;;155.73;113.23;;;19.50;87.50;;;;;;4952005;28;20465;-68
2022/07/05 04:09:23;;;;;;;175.13;128.67;;;19.60;87.40;;;;;;4953612;29;20538;-67
2022/07/05 04:11:52;;;;;;;160.20;114.17;;;19.60;87.50;;;;;;4953475;29;20967;-67
2022/07/05 04:14:21;;;;;;;173.53;114.27;;;19.70;87.10;;;;;;4954230;29;20876;-67
2022/07/05 04:16:49;;;;;;;149.07;88.83;;;19.50;87.80;;;;;;4952058;29;20498;-68
2022/07/05 04:19:17;;;;;;;142.33;75.60;;;19.60;87.60;;;;;;4966935;28;20457;-68
2022/07/05 04:21:46;;;;;;;124.87;72.37;;;19.50;87.90;;;;;;4947690;28;20460;-67
2022/07/05 04:24:14;;;;;;;113.57;76.00;;;19.60;87.30;;;;;;4951091;29;20456;-67
2022/07/05 04:26:43;;;;;;;111.80;63.83;;;19.70;87.00;;;;;;4953092;29;20934;-71
2022/07/05 04:29:12;;;;;;;111.00;71.03;;;19.90;86.90;;;;;;4952126;29;20779;-68
2022/07/05 04:31:41;;;;;;;98.47;54.97;;;19.90;86.70;;;;;;4954504;29;20506;-67
2022/07/05 04:34:09;;;;;;;101.03;56.63;;;20.00;86.60;;;;;;4951710;29;20468;-67
2022/07/05 04:36:41;;;;;;;107.17;67.40;;;20.10;85.90;;;;;;4947980;28;20452;-67
2022/07/05 04:39:10;;;;;;;109.47;77.03;;;20.20;86.00;;;;;;4951354;29;20460;-67
2022/07/05 04:41:44;;;;;;;105.00;77.37;;;20.30;86.20;;;;;;4943189;29;20467;-68
2022/07/05 04:44:14;;;;;;;102.07;60.30;;;20.40;86.20;;;;;;4951060;29;20554;-68
2022/07/05 04:46:42;;;;;;;102.03;67.10;;;20.40;85.70;;;;;;4954363;29;20530;-70
2022/07/05 04:49:11;;;;;;;103.13;65.27;;;20.40;86.10;;;;;;4952241;29;20905;-69
2022/07/05 04:51:39;;;;;;;169.37;155.67;;;20.40;86.10;;;;;;4952089;28;20479;-68
2022/07/05 04:54:14;;;;;;;102.70;73.17;;;20.40;85.50;;;;;;4951258;29;20476;-68
2022/07/05 04:56:42;;;;;;;101.60;73.37;;;20.40;85.90;;;;;;4949756;29;20487;-68
2022/07/05 04:59:10;;;;;;;92.67;63.17;;;20.60;85.90;;;;;;4947022;28;20484;-67
2022/07/05 05:01:40;;;;;;;104.07;91.63;;;20.60;85.90;;;;;;4949294;29;20545;-67
2022/07/05 05:04:08;;;;;;;174.87;161.67;;;20.60;85.70;;;;;;4949385;29;20465;-68
2022/07/05 05:06:37;;;;;;;643.43;615.03;;;20.80;85.40;;;;;;4949333;29;20481;-68
2022/07/05 05:09:05;;;;;;;94.10;82.47;;;21.00;84.70;;;;;;4953315;29;20456;-67
2022/07/05 05:11:33;;;;;;;42.60;39.17;;;21.20;84.60;;;;;;4947120;29;20511;-70
2022/07/05 05:14:01;;;;;;;8.70;7.07;;;21.50;84.60;;;;;;4955437;29;20483;-67
2022/07/05 05:16:30;;;;;;;10.07;8.53;;;21.90;82.40;;;;;;4951052;29;20904;-70
2022/07/05 05:18:59;;;;;;;14.40;11.30;;;22.10;80.40;;;;;;4958258;28;20454;-68
2022/07/05 05:21:28;;;;;;;10.87;8.03;;;22.10;79.70;;;;;;4954064;28;20495;-68
2022/07/05 05:23:56;;;;;;;8.50;6.50;;;21.80;80.10;;;;;;4954409;28;20490;-68
2022/07/05 05:26:24;;;;;;;9.47;7.53;;;21.90;79.30;;;;;;4951412;29;20481;-69
2022/07/05 05:28:52;;;;;;;8.40;6.83;;;22.20;80.90;;;;;;4953914;29;20527;-67
2022/07/05 05:31:21;;;;;;;7.67;6.97;;;22.50;80.40;;;;;;4947360;28;20462;-67
2022/07/05 05:33:49;;;;;;;8.83;8.03;;;22.60;77.40;;;;;;4954505;28;20529;-67
2022/07/05 05:36:19;;;;;;;18.63;10.70;;;22.30;77.70;;;;;;4942386;28;20496;-69
2022/07/05 05:38:47;;;;;;;6.73;6.03;;;22.30;79.10;;;;;;4960902;28;20469;-68
2022/07/05 05:41:18;;;;;;;6.57;5.50;;;22.20;77.80;;;;;;4961510;28;20541;-67
2022/07/05 05:43:46;;;;;;;6.47;5.77;;;22.10;77.80;;;;;;4954185;29;20448;-72
2022/07/05 05:46:15;;;;;;;6.13;5.53;;;22.10;76.90;;;;;;4950352;28;20954;-67
2022/07/05 05:48:43;;;;;;;18.23;8.23;;;22.30;79.40;;;;;;4949296;29;20462;-68
2022/07/05 05:51:11;;;;;;;16.67;8.30;;;22.60;82.70;;;;;;4954352;28;20474;-66
2022/07/05 05:53:41;;;;;;;6.83;6.07;;;22.90;82.90;;;;;;4948819;28;20493;-67
2022/07/05 05:56:09;;;;;;;6.93;5.50;;;23.20;82.10;;;;;;4944698;29;20791;-69
2022/07/05 05:58:37;;;;;;;7.47;5.20;;;23.40;81.00;;;;;;4952326;29;20456;-66
2022/07/05 06:01:11;;;;;;;9.77;5.60;;;23.70;80.50;;;;;;4946395;29;20453;-66
2022/07/05 06:03:39;;;;;;;10.50;6.17;;;23.90;79.40;;;;;;4941497;28;20529;-66
2022/07/05 06:06:07;;;;;;;11.83;6.33;;;24.00;78.90;;;;;;4950422;29;20878;-74
2022/07/05 06:08:35;;;;;;;11.30;6.40;;;24.10;78.40;;;;;;4943707;29;20557;-68
2022/07/05 06:11:08;;;;;;;11.87;5.20;;;24.30;77.90;;;;;;4953690;29;20512;-69
2022/07/05 06:13:36;;;;;;;6.47;4.43;;;24.40;77.70;;;;;;4954803;29;21422;-69
2022/07/05 06:16:07;;;;;;;11.30;6.20;;;24.50;77.10;;;;;;4954343;28;21022;-72
2022/07/05 06:18:36;;;;;;;6.30;4.57;;;24.60;76.60;;;;;;4952001;29;20551;-69
2022/07/05 06:21:07;;;;;;;5.53;4.80;;;24.60;76.40;;;;;;4955576;28;20491;-69
2022/07/05 06:23:35;;;;;;;7.37;6.67;;;24.70;76.00;;;;;;4954399;28;20442;-71
2022/07/05 06:26:09;;;;;;;11.40;5.50;;;24.70;75.70;;;;;;4954118;28;20577;-69
2022/07/05 06:28:37;;;;;;;6.83;4.70;;;24.80;75.50;;;;;;4955100;28;20506;-69
2022/07/05 06:31:05;;;;;;;7.97;5.87;;;24.80;75.20;;;;;;4951974;28;20472;-70
2022/07/05 06:33:34;;;;;;;4.93;4.33;;;24.90;75.00;;;;;;4949205;28;20521;-72
2022/07/05 06:36:04;;;;;;;7.60;5.63;;;25.00;74.60;;;;;;4957811;28;20462;-69
2022/07/05 06:38:32;;;;;;;7.10;4.80;;;25.00;74.40;;;;;;4954568;28;20453;-72
2022/07/05 06:41:01;;;;;;;9.97;6.20;;;25.10;74.40;;;;;;4956451;28;20454;-69
2022/07/05 06:43:32;;;;;;;5.17;4.67;;;25.10;74.20;;;;;;4952893;28;20819;-70
2022/07/05 06:46:08;;;;;;;8.10;5.80;;;25.20;74.00;;;;;;4951451;28;20478;-70
2022/07/05 06:48:36;;;;;;;8.10;4.73;;;25.20;73.90;;;;;;4959683;28;20489;-70
2022/07/05 06:51:07;;;;;;;5.87;5.03;;;25.30;73.70;;;;;;4955281;28;20496;-70
2022/07/05 06:53:36;;;;;;;6.83;5.53;;;25.30;73.60;;;;;;4953989;28;20539;-70
2022/07/05 06:56:07;;;;;;;9.10;6.40;;;25.30;73.50;;;;;;4952182;28;21065;-73
2022/07/05 06:58:40;;;;;;;5.70;5.10;;;25.40;73.40;;;;;;4950865;28;20970;-72
2022/07/05 07:01:09;;;;;;;9.97;4.90;;;25.40;73.30;;;;;;4953725;28;20521;-70
2022/07/05 07:03:46;;;;;;;6.83;4.73;;;25.50;73.20;;;;;;4958361;28;20451;-71
2022/07/05 07:06:35;;;;;;;5.30;4.80;;;25.50;73.10;;;;;;4954571;28;20798;-70
2022/07/05 07:09:18;;;;;;;6.10;5.50;;;25.50;72.90;;;;;;4953975;29;20484;-70
2022/07/05 07:11:47;;;;;;;10.30;5.50;;;25.50;72.90;;;;;;4954016;29;20468;-70
2022/07/05 07:14:16;;;;;;;6.37;4.90;;;25.60;72.90;;;;;;4957276;28;20991;-70
2022/07/05 07:16:45;;;;;;;5.70;5.10;;;25.60;72.80;;;;;;4944879;29;20545;-70
2022/07/05 07:19:13;;;;;;;7.07;6.03;;;25.60;72.70;;;;;;4944767;28;20478;-70
2022/07/05 07:21:43;;;;;;;6.90;5.00;;;25.70;72.60;;;;;;4954139;28;20534;-69
2022/07/05 07:24:12;;;;;;;5.33;4.93;;;25.70;72.40;;;;;;4952850;29;20491;-70
2022/07/05 07:29:28;;;;;;;5.90;5.03;;;25.70;72.20;;;;;;4947906;28;20457;-72
2022/07/05 07:31:57;;;;;;;6.30;5.70;;;25.80;72.10;;;;;;4952576;29;20525;-72
2022/07/05 07:34:26;;;;;;;7.77;5.20;;;25.80;72.20;;;;;;4953476;28;20474;-71
2022/07/05 07:36:55;;;;;;;7.90;5.60;;;25.80;72.10;;;;;;4954239;28;20473;-70
2022/07/05 07:39:24;;;;;;;7.33;5.37;;;25.80;72.20;;;;;;4951463;29;20883;-71
2022/07/05 07:41:51;;;;;;;5.80;4.73;;;25.80;72.10;;;;;;4949334;28;20526;-70
2022/07/05 07:44:20;;;;;;;6.10;5.50;;;25.90;72.10;;;;;;4952571;28;20481;-71
2022/07/05 07:46:50;;;;;;;5.93;4.90;;;25.90;72.00;;;;;;4952004;29;20957;-70
2022/07/05 07:49:18;;;;;;;8.40;5.03;;;25.90;72.00;;;;;;4950353;28;21008;-71
2022/07/05 07:51:47;;;;;;;8.67;5.07;;;25.90;72.00;;;;;;4943552;28;20482;-70
2022/07/05 07:54:16;;;;;;;7.33;5.30;;;26.00;71.90;;;;;;4951255;28;20543;-70
2022/07/05 07:56:45;;;;;;;5.23;4.73;;;26.00;71.90;;;;;;4945850;29;20469;-74
2022/07/05 07:59:14;;;;;;;5.13;4.37;;;26.00;71.80;;;;;;4948707;29;20521;-74
2022/07/05 08:01:42;;;;;;;7.13;5.33;;;26.00;71.60;;;;;;4953710;29;20473;-71
2022/07/05 08:04:14;;;;;;;7.17;5.10;;;26.00;71.40;;;;;;4948305;29;20465;-70
2022/07/05 08:06:44;;;;;;;5.40;4.90;;;26.00;71.40;;;;;;4947546;29;20466;-73
2022/07/05 08:09:13;;;;;;;5.70;5.20;;;26.10;71.40;;;;;;4952339;29;20932;-71
2022/07/05 08:11:46;;;;;;;5.17;4.57;;;26.10;71.30;;;;;;4948064;28;20473;-73
2022/07/05 08:14:15;;;;;;;7.43;4.90;;;26.10;71.30;;;;;;4953660;29;20488;-71
2022/07/05 08:16:44;;;;;;;6.47;5.00;;;26.10;71.20;;;;;;4956069;29;20493;-72
2022/07/05 08:22:08;;;;;;;5.13;4.73;;;26.10;71.10;;;;;;4954927;29;20843;-70
2022/07/05 08:24:39;;;;;;;5.40;4.90;;;26.20;71.10;;;;;;4951195;29;20996;-70
2022/07/05 08:27:08;;;;;;;5.70;4.63;;;26.20;71.00;;;;;;4953706;29;20517;-71
2022/07/05 08:29:37;;;;;;;10.43;5.10;;;26.20;70.90;;;;;;4954039;29;20477;-72
2022/07/05 08:32:06;;;;;;;12.23;5.23;;;26.20;71.10;;;;;;4952655;28;20458;-72
2022/07/05 08:34:36;;;;;;;9.60;4.60;;;26.30;71.00;;;;;;4958168;28;20488;-72
2022/07/05 08:37:04;;;;;;;22.17;5.47;;;26.30;70.80;;;;;;4956518;29;20501;-75
2022/07/05 08:39:41;;;;;;;17.37;5.53;;;26.30;70.80;;;;;;4956352;29;20446;-75
2022/07/05 08:42:11;;;;;;;13.23;6.80;;;26.30;70.70;;;;;;4957042;29;20941;-75
2022/07/05 08:44:40;;;;;;;25.07;7.17;;;26.30;70.30;;;;;;4954959;28;20925;-75
2022/07/05 08:47:11;;;;;;;17.10;5.73;;;26.30;70.60;;;;;;4953820;29;20949;-75
2022/07/05 08:49:41;;;;;;;15.37;5.57;;;26.30;70.10;;;;;;4956544;29;20450;-75
2022/07/05 08:52:12;;;;;;;10.07;5.03;;;26.40;70.00;;;;;;4949466;29;20490;-75
2022/07/05 08:54:41;;;;;;;9.50;5.00;;;26.40;69.90;;;;;;4952275;29;20810;-75
2022/07/05 08:57:09;;;;;;;10.37;5.33;;;26.40;69.90;;;;;;4950237;28;20806;-75
2022/07/05 08:59:41;;;;;;;7.13;4.43;;;26.40;69.70;;;;;;4950100;28;21211;-74
2022/07/05 09:02:17;;;;;;;5.63;4.53;;;26.40;69.70;;;;;;4952443;28;20489;-74
2022/07/05 09:04:50;;;;;;;12.80;4.80;;;26.50;69.50;;;;;;4952033;29;20783;-73
2022/07/05 09:07:21;;;;;;;7.60;4.40;;;26.50;69.50;;;;;;4947765;28;20949;-73
2022/07/05 09:09:51;;;;;;;5.20;4.37;;;26.50;69.40;;;;;;4950419;29;20571;-76
2022/07/05 09:12:20;;;;;;;8.87;4.87;;;26.60;69.40;;;;;;4954604;28;20474;-75
2022/07/05 09:14:54;;;;;;;4.80;3.73;;;26.60;69.30;;;;;;4952206;29;20454;-75
2022/07/05 09:17:23;;;;;;;9.23;4.03;;;26.60;69.20;;;;;;4950064;29;20501;-74
2022/07/05 09:20:11;;;;;;;4.90;4.50;;;26.70;69.10;;;;;;4954454;28;20446;-75
2022/07/05 09:22:44;;;;;;;5.20;3.60;;;26.70;68.90;;;;;;4955670;28;20985;-74
2022/07/05 09:25:22;;;;;;;4.50;4.10;;;26.70;68.90;;;;;;4947170;29;20519;-74
2022/07/05 09:27:52;;;;;;;11.13;3.73;;;26.70;68.80;;;;;;4956998;28;20469;-75
2022/07/05 09:30:30;;;;;;;5.30;3.90;;;26.80;68.80;;;;;;4950941;28;20857;-74
2022/07/05 09:33:08;;;;;;;5.23;3.67;;;26.80;68.80;;;;;;4953591;28;20465;-75
2022/07/05 09:35:39;;;;;;;6.57;4.77;;;26.80;68.70;;;;;;4955763;28;20525;-76
2022/07/05 09:38:18;;;;;;;5.27;3.57;;;26.80;68.70;;;;;;4954975;28;20448;-74
2022/07/05 09:40:51;;;;;;;4.20;3.57;;;26.90;68.60;;;;;;4951021;29;20454;-74
2022/07/05 09:43:21;;;;;;;4.47;3.53;;;26.90;68.50;;;;;;4949390;29;20482;-75
2022/07/05 09:45:57;;;;;;;4.73;4.10;;;26.90;68.40;;;;;;4954169;28;20528;-75
2022/07/05 09:48:26;;;;;;;6.10;3.47;;;26.90;68.40;;;;;;4955002;29;20973;-75
2022/07/05 09:51:09;;;;;;;3.83;3.43;;;26.90;68.30;;;;;;4952994;29;22574;-75
2022/07/05 09:53:59;;;;;;;6.73;3.87;;;26.90;68.30;;;;;;4949352;29;20505;-73
2022/07/05 09:56:45;;;;;;;3.80;3.40;;;27.00;68.30;;;;;;4958624;28;20856;-74
2022/07/05 09:59:15;;;;;;;5.50;3.80;;;27.00;68.20;;;;;;4955229;28;20861;-74
2022/07/05 10:01:43;;;;;;;3.43;3.13;;;27.00;68.10;;;;;;4955410;28;20458;-74
2022/07/05 10:04:11;;;;;;;4.80;3.13;;;27.10;68.00;;;;;;4954796;28;20451;-73
2022/07/05 10:06:42;;;;;;;3.37;3.07;;;27.10;67.90;;;;;;4955508;28;20795;-74
2022/07/05 10:09:11;;;;;;;5.60;3.20;;;27.10;67.70;;;;;;4954171;29;20776;-74
2022/07/05 10:11:42;;;;;;;3.03;2.80;;;27.10;67.60;;;;;;4950285;29;20456;-74
2022/07/05 10:14:18;;;;;;;3.40;3.10;;;27.20;67.40;;;;;;4946232;29;20828;-75
2022/07/05 10:16:55;;;;;;;3.57;3.10;;;27.20;67.40;;;;;;4954300;29;20492;-75
2022/07/05 10:19:26;;;;;;;3.07;2.77;;;27.20;67.30;;;;;;4953712;29;20455;-74
2022/07/05 10:21:56;;;;;;;3.60;2.90;;;27.20;67.20;;;;;;4954579;29;20447;-74
2022/07/05 10:24:45;;;;;;;5.50;2.90;;;27.20;67.10;;;;;;4954654;28;20467;-74
2022/07/05 10:27:15;;;;;;;4.63;3.07;;;27.20;67.00;;;;;;4953513;28;20959;-74
2022/07/05 10:29:44;;;;;;;2.90;2.70;;;27.20;66.90;;;;;;4954302;28;20450;-74
2022/07/05 10:32:13;;;;;;;3.60;2.50;;;27.20;66.90;;;;;;4952772;29;20803;-75
2022/07/05 10:34:46;;;;;;;3.03;2.60;;;27.20;66.80;;;;;;4948174;28;20448;-74
2022/07/05 10:37:27;;;;;;;4.33;2.80;;;27.30;66.90;;;;;;4948441;28;20474;-75
2022/07/05 10:39:57;;;;;;;4.80;2.50;;;27.30;67.00;;;;;;4949701;28;20450;-75
2022/07/05 10:42:28;;;;;;;2.90;2.60;;;27.30;66.80;;;;;;4954526;29;20452;-76
2022/07/05 10:44:56;;;;;;;3.17;2.40;;;27.30;66.70;;;;;;4955799;28;20438;-75
2022/07/05 10:47:25;;;;;;;3.33;2.90;;;27.40;66.60;;;;;;4948149;29;21004;-74
2022/07/05 10:50:05;;;;;;;4.43;3.17;;;27.40;66.70;;;;;;4953357;29;20451;-73
2022/07/05 10:52:35;;;;;;;3.67;2.60;;;27.30;66.60;;;;;;4945905;29;20477;-74
2022/07/05 10:55:23;;;;;;;4.10;2.73;;;27.30;66.50;;;;;;4953470;28;20939;-75
2022/07/05 10:58:20;;;;;;;3.20;2.90;;;27.40;66.50;;;;;;4947344;28;20514;-75
2022/07/05 11:00:52;;;;;;;3.13;2.83;;;27.40;66.70;;;;;;4952548;29;20530;-74
2022/07/05 11:03:34;;;;;;;3.33;2.67;;;27.40;66.50;;;;;;4952802;28;20464;-75
2022/07/05 11:06:07;;;;;;;10.40;2.80;;;27.40;66.50;;;;;;4952077;28;20455;-77
2022/07/05 11:09:16;;;;;;;4.00;2.70;;;27.40;66.40;;;;;;4951397;29;20460;-76
2022/07/05 11:11:47;;;;;;;2.97;2.67;;;27.50;66.30;;;;;;4953498;29;20452;-76
2022/07/05 11:14:38;;;;;;;5.97;2.53;;;27.50;66.20;;;;;;4953517;29;20453;-75
2022/07/05 11:17:19;;;;;;;3.20;2.53;;;27.50;66.10;;;;;;4947349;29;20484;-75
2022/07/05 11:20:14;;;;;;;3.13;2.80;;;27.50;66.00;;;;;;4951442;29;21000;-75
2022/07/05 11:22:58;;;;;;;3.20;2.80;;;27.50;65.70;;;;;;4959733;28;20506;-75
2022/07/05 11:25:29;;;;;;;2.63;2.40;;;27.50;65.40;;;;;;4952402;29;20511;-75
2022/07/05 11:28:12;;;;;;;2.23;2.03;;;27.50;65.30;;;;;;4951197;29;20847;-75
2022/07/05 11:30:49;;;;;;;4.33;2.83;;;27.50;65.10;;;;;;4951994;29;20453;-75
2022/07/05 11:33:43;;;;;;;4.33;2.57;;;27.50;65.20;;;;;;4951895;29;20440;-76
2022/07/05 11:36:26;;;;;;;2.77;2.57;;;27.50;65.30;;;;;;4949315;29;20464;-75
2022/07/05 11:39:16;;;;;;;2.90;2.40;;;27.50;65.20;;;;;;4946365;29;20477;-75
2022/07/05 11:41:48;;;;;;;3.83;2.47;;;27.50;65.20;;;;;;4955715;28;20460;-74
2022/07/05 11:44:17;;;;;;;2.30;2.10;;;27.60;65.00;;;;;;4945799;28;20441;-75
2022/07/05 11:46:46;;;;;;;3.40;2.80;;;27.60;65.00;;;;;;4953237;28;20570;-75
2022/07/05 11:49:21;;;;;;;2.83;2.63;;;27.70;64.80;;;;;;4954497;28;20456;-75
2022/07/05 11:51:57;;;;;;;3.13;2.83;;;27.70;64.40;;;;;;4953342;28;20488;-75
2022/07/05 11:54:25;;;;;;;3.20;2.30;;;27.70;63.90;;;;;;4953837;29;20449;-76
2022/07/05 11:56:55;;;;;;;4.03;2.90;;;27.80;64.00;;;;;;4954363;28;20449;-76
2022/07/05 11:59:26;;;;;;;4.00;2.67;;;27.80;63.90;;;;;;4956039;28;20545;-78
2022/07/05 12:01:54;;;;;;;3.73;2.77;;;27.90;63.70;;;;;;4954072;28;20446;-73
2022/07/05 12:04:24;;;;;;;2.70;2.50;;;27.90;63.70;;;;;;4956283;29;20466;-73
2022/07/05 12:06:52;;;;;;;4.60;2.93;;;28.00;63.70;;;;;;4957190;28;20476;-74
2022/07/05 12:09:25;;;;;;;4.70;2.13;;;28.00;63.50;;;;;;4957012;28;20506;-72
2022/07/05 12:14:50;;;;;;;5.43;2.40;;;28.20;63.30;;;;;;4955071;29;20524;-72
2022/07/05 12:17:20;;;;;;;4.20;2.40;;;28.30;63.10;;;;;;4959480;28;21557;-76
2022/07/05 12:19:54;;;;;;;4.90;2.73;;;28.30;62.90;;;;;;4953646;28;20541;-75
2022/07/05 12:22:34;;;;;;;2.70;2.50;;;28.30;62.90;;;;;;4949898;28;20475;-74
2022/07/05 12:25:04;;;;;;;4.33;2.97;;;28.30;62.80;;;;;;4947223;29;20500;-74
2022/07/05 12:27:36;;;;;;;2.77;2.50;;;28.30;63.00;;;;;;4955007;29;20449;-75
2022/07/05 12:30:08;;;;;;;2.70;2.27;;;28.40;62.50;;;;;;4956748;29;20450;-70
2022/07/05 12:32:55;;;;;;;3.07;2.40;;;28.50;62.10;;;;;;4953383;29;20986;-69
2022/07/05 12:35:31;;;;;;;2.90;2.60;;;28.40;61.80;;;;;;4957059;29;20453;-70
2022/07/05 12:38:07;;;;;;;3.40;2.50;;;28.40;61.80;;;;;;4953280;29;20501;-70
2022/07/05 12:40:36;;;;;;;4.80;3.47;;;28.30;62.10;;;;;;4955807;29;20469;-69
2022/07/05 12:43:08;;;;;;;2.70;2.50;;;28.30;61.90;;;;;;4952776;28;20964;-72
2022/07/05 12:45:37;;;;;;;2.97;2.63;;;28.50;61.80;;;;;;4956389;29;20490;-69
2022/07/05 12:48:07;;;;;;;2.93;2.33;;;28.80;61.00;;;;;;4958101;28;20447;-71
2022/07/05 12:50:47;;;;;;;3.00;2.70;;;29.00;60.60;;;;;;4946448;29;20815;-69
2022/07/05 12:59:31;;;;;;;3.50;2.70;;;29.30;59.70;;;;;;4950897;28;20574;-69
2022/07/05 13:02:00;;;;;;;3.70;2.20;;;29.40;59.40;;;;;;4949601;29;20455;-69
2022/07/05 13:04:34;;;;;;;2.70;2.50;;;29.50;59.20;;;;;;4951060;29;20773;-72
2022/07/05 13:07:04;;;;;;;3.60;2.67;;;29.60;58.90;;;;;;4947900;29;20545;-71
2022/07/05 13:09:52;;;;;;;2.80;2.20;;;29.50;59.10;;;;;;4949160;28;20942;-71
2022/07/05 13:12:23;;;;;;;2.67;2.47;;;29.30;59.00;;;;;;4943305;29;20497;-71
2022/07/05 13:14:53;;;;;;;4.23;2.50;;;29.10;59.00;;;;;;4948263;29;20458;-73
2022/07/05 13:17:24;;;;;;;5.17;2.50;;;29.10;59.30;;;;;;4950977;29;20837;-72